sensor_id;sensor_type;location;lat;lon;timestamp;pressure;altitude;pressure_sealevel;temperature;humidity
64066;BME280;50318;54.760;9.408;2022-12-08T00:02:06;100147.13;;;5.11;64.58
64066;BME280;50318;54.760;9.408;2022-12-08T00:04:39;100142.72;;;5.01;64.48
64066;BME280;50318;54.760;9.408;2022-12-08T00:07:32;100146.53;;;5.03;64.26
64066;BME280;50318;54.760;9.408;2022-12-08T00:10:19;100161.47;;;5.11;64.15
64066;BME280;50318;54.760;9.408;2022-12-08T00:13:02;100108.72;;;4.76;64.21
64066;BME280;50318;54.760;9.408;2022-12-08T00:15:38;100158.66;;;5.15;64.32
64066;BME280;50318;54.760;9.408;2022-12-08T00:18:10;100138.03;;;5.01;64.21
64066;BME280;50318;54.760;9.408;2022-12-08T00:20:40;100122.31;;;4.92;64.14
64066;BME280;50318;54.760;9.408;2022-12-08T00:23:16;100114.56;;;4.91;63.80
64066;BME280;50318;54.760;9.408;2022-12-08T00:25:44;100173.69;;;5.36;64.00
64066;BME280;50318;54.760;9.408;2022-12-08T00:28:11;100112.47;;;4.99;64.19
64066;BME280;50318;54.760;9.408;2022-12-08T00:30:41;100168.50;;;5.41;64.57
64066;BME280;50318;54.760;9.408;2022-12-08T00:33:09;100104.13;;;5.06;63.60
64066;BME280;50318;54.760;9.408;2022-12-08T00:35:37;100151.41;;;5.41;63.77
64066;BME280;50318;54.760;9.408;2022-12-08T00:38:04;100117.63;;;5.26;63.79
64066;BME280;50318;54.760;9.408;2022-12-08T00:40:43;100153.00;;;5.54;64.02
64066;BME280;50318;54.760;9.408;2022-12-08T00:43:10;100099.19;;;5.17;63.76
64066;BME280;50318;54.760;9.408;2022-12-08T00:45:40;100131.59;;;5.40;63.55
64066;BME280;50318;54.760;9.408;2022-12-08T00:48:11;100140.38;;;5.48;63.67
64066;BME280;50318;54.760;9.408;2022-12-08T00:50:44;100102.06;;;5.26;63.58
64066;BME280;50318;54.760;9.408;2022-12-08T00:53:19;100115.72;;;5.39;63.69
64066;BME280;50318;54.760;9.408;2022-12-08T00:55:46;100082.63;;;5.11;63.62
64066;BME280;50318;54.760;9.408;2022-12-08T00:58:17;100110.03;;;5.33;63.85
64066;BME280;50318;54.760;9.408;2022-12-08T01:00:46;100130.75;;;5.43;63.69
64066;BME280;50318;54.760;9.408;2022-12-08T01:03:29;100146.91;;;5.50;64.05
64066;BME280;50318;54.760;9.408;2022-12-08T01:06:17;100089.16;;;5.14;63.78
64066;BME280;50318;54.760;9.408;2022-12-08T01:08:52;100086.78;;;5.16;63.82
64066;BME280;50318;54.760;9.408;2022-12-08T01:11:24;100151.06;;;5.55;63.76
64066;BME280;50318;54.760;9.408;2022-12-08T01:13:53;100097.16;;;5.21;63.98
64066;BME280;50318;54.760;9.408;2022-12-08T01:16:25;100106.31;;;5.27;63.74
64066;BME280;50318;54.760;9.408;2022-12-08T01:18:56;100102.84;;;5.27;64.25
64066;BME280;50318;54.760;9.408;2022-12-08T01:21:24;100133.63;;;5.52;63.67
64066;BME280;50318;54.760;9.408;2022-12-08T01:23:51;100123.78;;;5.42;63.48
64066;BME280;50318;54.760;9.408;2022-12-08T01:26:21;100144.19;;;5.50;63.57
64066;BME280;50318;54.760;9.408;2022-12-08T01:28:51;100099.25;;;5.30;64.04
64066;BME280;50318;54.760;9.408;2022-12-08T01:31:27;100073.63;;;5.14;63.85
64066;BME280;50318;54.760;9.408;2022-12-08T01:33:57;100059.25;;;5.14;63.56
64066;BME280;50318;54.760;9.408;2022-12-08T01:36:29;100065.88;;;5.13;63.15
64066;BME280;50318;54.760;9.408;2022-12-08T01:38:59;100044.34;;;4.89;63.17
64066;BME280;50318;54.760;9.408;2022-12-08T01:41:35;100046.53;;;4.94;63.86
64066;BME280;50318;54.760;9.408;2022-12-08T01:46:49;100075.66;;;5.10;63.64
64066;BME280;50318;54.760;9.408;2022-12-08T01:49:18;100101.03;;;5.20;63.58
64066;BME280;50318;54.760;9.408;2022-12-08T01:52:09;100105.13;;;5.12;63.94
64066;BME280;50318;54.760;9.408;2022-12-08T01:54:57;100078.16;;;4.72;64.00
64066;BME280;50318;54.760;9.408;2022-12-08T01:57:40;100110.84;;;5.01;64.20
64066;BME280;50318;54.760;9.408;2022-12-08T02:00:17;100067.63;;;4.74;64.36
64066;BME280;50318;54.760;9.408;2022-12-08T02:03:08;100048.78;;;4.67;64.41
64066;BME280;50318;54.760;9.408;2022-12-08T02:05:40;100068.84;;;4.73;64.68
64066;BME280;50318;54.760;9.408;2022-12-08T02:08:12;100057.97;;;4.73;64.63
64066;BME280;50318;54.760;9.408;2022-12-08T02:10:46;100092.16;;;5.03;64.95
64066;BME280;50318;54.760;9.408;2022-12-08T02:13:23;100025.00;;;4.71;64.48
64066;BME280;50318;54.760;9.408;2022-12-08T02:22:34;100056.16;;;4.99;64.59
64066;BME280;50318;54.760;9.408;2022-12-08T02:25:39;100051.22;;;4.94;64.75
64066;BME280;50318;54.760;9.408;2022-12-08T02:31:28;100095.25;;;5.34;64.18
64066;BME280;50318;54.760;9.408;2022-12-08T02:37:05;100095.16;;;5.38;64.54
64066;BME280;50318;54.760;9.408;2022-12-08T02:39:52;100100.16;;;5.39;64.51
64066;BME280;50318;54.760;9.408;2022-12-08T02:42:31;100097.44;;;5.39;64.38
64066;BME280;50318;54.760;9.408;2022-12-08T02:48:07;100029.31;;;5.01;64.30
64066;BME280;50318;54.760;9.408;2022-12-08T02:50:39;100029.88;;;5.09;64.66
64066;BME280;50318;54.760;9.408;2022-12-08T02:53:06;100052.91;;;5.20;64.48
64066;BME280;50318;54.760;9.408;2022-12-08T03:01:35;100079.50;;;5.42;63.65
64066;BME280;50318;54.760;9.408;2022-12-08T03:10:13;100060.25;;;5.20;64.16
64066;BME280;50318;54.760;9.408;2022-12-08T03:12:47;100085.72;;;5.42;64.09
64066;BME280;50318;54.760;9.408;2022-12-08T03:15:18;100032.28;;;5.07;64.15
64066;BME280;50318;54.760;9.408;2022-12-08T03:17:49;100081.72;;;5.47;64.06
64066;BME280;50318;54.760;9.408;2022-12-08T03:20:26;100088.59;;;5.51;64.00
64066;BME280;50318;54.760;9.408;2022-12-08T03:22:59;100012.25;;;5.01;63.11
64066;BME280;50318;54.760;9.408;2022-12-08T03:25:43;100032.84;;;5.14;63.67
64066;BME280;50318;54.760;9.408;2022-12-08T03:28:17;100053.59;;;5.37;63.80
64066;BME280;50318;54.760;9.408;2022-12-08T03:30:51;100075.31;;;5.53;63.90
64066;BME280;50318;54.760;9.408;2022-12-08T03:33:32;100011.19;;;5.11;63.57
64066;BME280;50318;54.760;9.408;2022-12-08T03:36:03;100016.00;;;5.19;63.80
64066;BME280;50318;54.760;9.408;2022-12-08T03:38:49;100004.88;;;5.14;63.54
64066;BME280;50318;54.760;9.408;2022-12-08T03:41:30;100011.75;;;5.18;63.57
64066;BME280;50318;54.760;9.408;2022-12-08T03:44:03;100020.50;;;5.26;63.40
64066;BME280;50318;54.760;9.408;2022-12-08T03:46:33;100056.38;;;5.50;63.71
64066;BME280;50318;54.760;9.408;2022-12-08T03:48:59;100007.09;;;5.19;63.51
64066;BME280;50318;54.760;9.408;2022-12-08T03:51:32;99981.06;;;5.05;63.94
64066;BME280;50318;54.760;9.408;2022-12-08T03:54:03;100024.56;;;5.34;63.53
64066;BME280;50318;54.760;9.408;2022-12-08T03:56:39;99989.09;;;5.09;63.66
64066;BME280;50318;54.760;9.408;2022-12-08T03:59:17;100002.16;;;5.14;63.41
64066;BME280;50318;54.760;9.408;2022-12-08T04:01:44;100059.44;;;5.52;64.04
64066;BME280;50318;54.760;9.408;2022-12-08T04:04:11;100035.56;;;5.43;63.55
64066;BME280;50318;54.760;9.408;2022-12-08T04:06:45;99992.91;;;5.11;63.67
64066;BME280;50318;54.760;9.408;2022-12-08T04:09:19;100048.34;;;5.59;63.64
64066;BME280;50318;54.760;9.408;2022-12-08T04:11:46;99991.72;;;5.12;64.15
64066;BME280;50318;54.760;9.408;2022-12-08T04:14:21;100057.94;;;5.64;63.45
64066;BME280;50318;54.760;9.408;2022-12-08T04:16:51;99998.91;;;5.19;63.81
64066;BME280;50318;54.760;9.408;2022-12-08T04:19:24;100069.56;;;5.64;63.55
64066;BME280;50318;54.760;9.408;2022-12-08T04:21:51;100003.59;;;5.18;63.48
64066;BME280;50318;54.760;9.408;2022-12-08T04:24:24;100075.00;;;5.64;63.51
64066;BME280;50318;54.760;9.408;2022-12-08T04:26:50;100054.31;;;5.54;63.57
64066;BME280;50318;54.760;9.408;2022-12-08T04:29:20;100070.34;;;5.65;63.10
64066;BME280;50318;54.760;9.408;2022-12-08T04:31:49;100027.94;;;5.38;63.57
64066;BME280;50318;54.760;9.408;2022-12-08T04:34:18;100057.50;;;5.65;63.78
64066;BME280;50318;54.760;9.408;2022-12-08T04:36:50;100068.72;;;5.67;63.60
64066;BME280;50318;54.760;9.408;2022-12-08T04:39:21;100053.34;;;5.61;63.33
64066;BME280;50318;54.760;9.408;2022-12-08T04:41:49;100013.66;;;5.34;63.17
64066;BME280;50318;54.760;9.408;2022-12-08T04:44:33;99973.31;;;5.04;63.02
64066;BME280;50318;54.760;9.408;2022-12-08T04:47:09;99993.59;;;5.15;63.27
64066;BME280;50318;54.760;9.408;2022-12-08T04:49:44;99974.53;;;5.03;63.83
64066;BME280;50318;54.760;9.408;2022-12-08T04:52:14;99965.41;;;5.09;63.92
64066;BME280;50318;54.760;9.408;2022-12-08T04:54:48;99969.22;;;5.12;63.74
64066;BME280;50318;54.760;9.408;2022-12-08T04:57:20;99959.44;;;5.14;64.05
64066;BME280;50318;54.760;9.408;2022-12-08T04:59:49;100027.00;;;5.58;63.97
64066;BME280;50318;54.760;9.408;2022-12-08T05:02:16;99980.00;;;5.15;63.43
64066;BME280;50318;54.760;9.408;2022-12-08T05:04:46;99995.38;;;5.22;63.81
64066;BME280;50318;54.760;9.408;2022-12-08T05:07:23;100046.81;;;5.58;63.88
64066;BME280;50318;54.760;9.408;2022-12-08T05:09:52;99974.56;;;5.15;63.95
64066;BME280;50318;54.760;9.408;2022-12-08T05:12:32;100002.78;;;5.34;64.09
64066;BME280;50318;54.760;9.408;2022-12-08T05:15:00;100033.66;;;5.57;63.96
64066;BME280;50318;54.760;9.408;2022-12-08T05:17:27;100033.41;;;5.51;63.42
64066;BME280;50318;54.760;9.408;2022-12-08T05:19:56;100027.50;;;5.40;63.34
64066;BME280;50318;54.760;9.408;2022-12-08T05:22:23;99993.13;;;5.04;63.43
64066;BME280;50318;54.760;9.408;2022-12-08T05:24:57;100002.91;;;5.02;63.62
64066;BME280;50318;54.760;9.408;2022-12-08T05:27:26;100027.41;;;5.14;63.63
64066;BME280;50318;54.760;9.408;2022-12-08T05:30:00;99989.66;;;4.87;63.77
64066;BME280;50318;54.760;9.408;2022-12-08T05:32:27;99981.28;;;4.82;63.91
64066;BME280;50318;54.760;9.408;2022-12-08T05:35:00;99980.84;;;4.83;64.19
64066;BME280;50318;54.760;9.408;2022-12-08T05:37:36;99993.31;;;4.97;64.36
64066;BME280;50318;54.760;9.408;2022-12-08T05:40:03;99965.59;;;4.73;64.24
64066;BME280;50318;54.760;9.408;2022-12-08T05:42:32;99999.16;;;4.96;64.41
64066;BME280;50318;54.760;9.408;2022-12-08T05:44:59;100002.06;;;4.88;64.21
64066;BME280;50318;54.760;9.408;2022-12-08T05:47:29;99991.81;;;4.80;64.17
64066;BME280;50318;54.760;9.408;2022-12-08T05:50:01;100031.50;;;5.06;64.41
64066;BME280;50318;54.760;9.408;2022-12-08T05:52:27;100012.69;;;4.83;64.43
64066;BME280;50318;54.760;9.408;2022-12-08T05:55:01;99977.81;;;4.65;64.55
64066;BME280;50318;54.760;9.408;2022-12-08T05:57:28;100030.75;;;5.06;64.84
64066;BME280;50318;54.760;9.408;2022-12-08T05:59:55;100031.41;;;5.10;64.70
64066;BME280;50318;54.760;9.408;2022-12-08T06:02:26;100018.94;;;4.96;64.64
64066;BME280;50318;54.760;9.408;2022-12-08T06:04:57;100021.41;;;5.07;65.35
64066;BME280;50318;54.760;9.408;2022-12-08T06:07:26;99991.63;;;4.87;64.90
64066;BME280;50318;54.760;9.408;2022-12-08T06:09:56;100035.03;;;5.19;65.15
64066;BME280;50318;54.760;9.408;2022-12-08T06:12:33;99970.84;;;4.80;65.00
64066;BME280;50318;54.760;9.408;2022-12-08T06:15:15;100029.84;;;5.25;65.23
64066;BME280;50318;54.760;9.408;2022-12-08T06:17:49;99988.13;;;5.03;65.42
64066;BME280;50318;54.760;9.408;2022-12-08T06:20:30;100031.28;;;5.30;64.85
64066;BME280;50318;54.760;9.408;2022-12-08T06:23:00;99958.69;;;4.85;65.32
64066;BME280;50318;54.760;9.408;2022-12-08T06:25:36;100038.81;;;5.38;65.21
64066;BME280;50318;54.760;9.408;2022-12-08T06:28:08;100024.56;;;5.34;65.44
64066;BME280;50318;54.760;9.408;2022-12-08T06:30:45;99996.31;;;5.15;64.88
64066;BME280;50318;54.760;9.408;2022-12-08T06:33:42;100044.41;;;5.47;64.89
64066;BME280;50318;54.760;9.408;2022-12-08T06:36:13;99988.69;;;5.10;64.98
64066;BME280;50318;54.760;9.408;2022-12-08T06:38:42;100015.72;;;5.30;64.48
64066;BME280;50318;54.760;9.408;2022-12-08T06:41:22;99994.00;;;5.14;64.77
64066;BME280;50318;54.760;9.408;2022-12-08T06:43:55;99992.81;;;5.15;64.91
64066;BME280;50318;54.760;9.408;2022-12-08T06:46:31;100031.25;;;5.46;65.12
64066;BME280;50318;54.760;9.408;2022-12-08T06:48:58;100060.75;;;5.60;64.71
64066;BME280;50318;54.760;9.408;2022-12-08T06:51:25;100015.28;;;5.32;64.86
64066;BME280;50318;54.760;9.408;2022-12-08T06:53:55;100026.06;;;5.35;64.70
64066;BME280;50318;54.760;9.408;2022-12-08T06:56:30;100010.16;;;5.21;64.53
64066;BME280;50318;54.760;9.408;2022-12-08T06:58:57;100071.41;;;5.54;64.59
64066;BME280;50318;54.760;9.408;2022-12-08T07:01:24;100050.00;;;5.40;64.53
64066;BME280;50318;54.760;9.408;2022-12-08T07:04:00;100031.19;;;5.33;64.30
64066;BME280;50318;54.760;9.408;2022-12-08T07:06:34;100083.50;;;5.66;64.31
64066;BME280;50318;54.760;9.408;2022-12-08T07:09:07;100029.41;;;5.27;64.02
64066;BME280;50318;54.760;9.408;2022-12-08T07:11:37;100067.59;;;5.52;64.73
64066;BME280;50318;54.760;9.408;2022-12-08T07:14:16;100034.09;;;5.26;64.17
64066;BME280;50318;54.760;9.408;2022-12-08T07:16:53;100034.97;;;5.23;63.77
64066;BME280;50318;54.760;9.408;2022-12-08T07:19:20;100056.09;;;5.32;63.67
64066;BME280;50318;54.760;9.408;2022-12-08T07:21:46;100083.25;;;5.48;64.23
64066;BME280;50318;54.760;9.408;2022-12-08T07:24:15;100041.09;;;5.11;64.48
64066;BME280;50318;54.760;9.408;2022-12-08T07:26:49;100064.00;;;5.26;64.65
64066;BME280;50318;54.760;9.408;2022-12-08T07:29:37;100039.81;;;5.15;64.13
64066;BME280;50318;54.760;9.408;2022-12-08T07:32:10;100046.66;;;5.20;64.46
64066;BME280;50318;54.760;9.408;2022-12-08T07:34:39;100062.28;;;5.32;64.31
64066;BME280;50318;54.760;9.408;2022-12-08T07:37:08;100071.22;;;5.33;64.05
64066;BME280;50318;54.760;9.408;2022-12-08T07:40:16;100096.31;;;5.53;64.03
64066;BME280;50318;54.760;9.408;2022-12-08T07:42:43;100060.19;;;5.23;64.34
64066;BME280;50318;54.760;9.408;2022-12-08T07:45:41;100060.25;;;5.20;63.62
64066;BME280;50318;54.760;9.408;2022-12-08T07:48:10;100109.91;;;5.53;64.21
64066;BME280;50318;54.760;9.408;2022-12-08T07:50:36;100043.03;;;5.10;64.00
64066;BME280;50318;54.760;9.408;2022-12-08T07:53:16;100094.88;;;5.48;64.18
64066;BME280;50318;54.760;9.408;2022-12-08T07:55:45;100102.38;;;5.44;64.22
64066;BME280;50318;54.760;9.408;2022-12-08T07:58:14;100085.56;;;5.33;63.94
64066;BME280;50318;54.760;9.408;2022-12-08T08:00:52;100040.63;;;5.00;63.75
64066;BME280;50318;54.760;9.408;2022-12-08T08:03:18;100053.59;;;4.92;63.75
64066;BME280;50318;54.760;9.408;2022-12-08T08:05:50;100060.56;;;4.93;63.82
64066;BME280;50318;54.760;9.408;2022-12-08T08:08:19;100045.91;;;4.74;63.63
64066;BME280;50318;54.760;9.408;2022-12-08T08:10:52;100046.72;;;4.71;63.78
64066;BME280;50318;54.760;9.408;2022-12-08T08:13:24;100088.50;;;4.93;64.10
64066;BME280;50318;54.760;9.408;2022-12-08T08:15:51;100050.38;;;4.65;64.00
64066;BME280;50318;54.760;9.408;2022-12-08T08:18:22;100070.69;;;4.76;63.94
64066;BME280;50318;54.760;9.408;2022-12-08T08:20:51;100056.94;;;4.67;63.50
64066;BME280;50318;54.760;9.408;2022-12-08T08:23:19;100059.31;;;4.65;63.74
64066;BME280;50318;54.760;9.408;2022-12-08T08:26:06;100060.06;;;4.66;63.46
64066;BME280;50318;54.760;9.408;2022-12-08T08:28:38;100085.38;;;4.79;63.43
64066;BME280;50318;54.760;9.408;2022-12-08T08:31:15;100090.56;;;4.73;63.63
64066;BME280;50318;54.760;9.408;2022-12-08T08:33:42;100077.22;;;4.62;63.85
64066;BME280;50318;54.760;9.408;2022-12-08T08:36:08;100076.88;;;4.60;63.88
64066;BME280;50318;54.760;9.408;2022-12-08T08:38:37;100080.09;;;4.55;63.90
64066;BME280;50318;54.760;9.408;2022-12-08T08:41:10;100112.63;;;4.91;64.29
64066;BME280;50318;54.760;9.408;2022-12-08T08:43:45;100064.03;;;4.45;64.40
64066;BME280;50318;54.760;9.408;2022-12-08T08:46:11;100086.03;;;4.67;64.42
64066;BME280;50318;54.760;9.408;2022-12-08T08:48:49;100122.22;;;4.96;64.61
64066;BME280;50318;54.760;9.408;2022-12-08T08:51:18;100131.84;;;5.01;65.18
64066;BME280;50318;54.760;9.408;2022-12-08T08:53:52;100087.34;;;4.78;65.18
64066;BME280;50318;54.760;9.408;2022-12-08T08:56:29;100127.31;;;5.10;64.61
64066;BME280;50318;54.760;9.408;2022-12-08T08:58:59;100082.47;;;4.86;64.44
64066;BME280;50318;54.760;9.408;2022-12-08T09:01:34;100083.34;;;4.83;64.02
64066;BME280;50318;54.760;9.408;2022-12-08T09:04:06;100136.38;;;5.20;64.29
64066;BME280;50318;54.760;9.408;2022-12-08T09:06:34;100093.25;;;4.89;63.90
64066;BME280;50318;54.760;9.408;2022-12-08T09:09:01;100118.50;;;5.06;64.43
64066;BME280;50318;54.760;9.408;2022-12-08T09:11:27;100104.66;;;5.01;65.00
64066;BME280;50318;54.760;9.408;2022-12-08T09:14:10;100100.91;;;4.94;64.37
64066;BME280;50318;54.760;9.408;2022-12-08T09:16:48;100143.53;;;5.30;64.50
64066;BME280;50318;54.760;9.408;2022-12-08T09:19:15;100091.91;;;4.98;65.17
64066;BME280;50318;54.760;9.408;2022-12-08T09:21:47;100065.94;;;4.80;64.42
64066;BME280;50318;54.760;9.408;2022-12-08T09:24:13;100136.47;;;5.33;64.80
64066;BME280;50318;54.760;9.408;2022-12-08T09:26:45;100092.06;;;5.07;65.00
64066;BME280;50318;54.760;9.408;2022-12-08T09:29:31;100080.97;;;5.01;64.71
64066;BME280;50318;54.760;9.408;2022-12-08T09:31:58;100149.38;;;5.45;64.54
64066;BME280;50318;54.760;9.408;2022-12-08T09:34:37;100145.03;;;5.47;64.59
64066;BME280;50318;54.760;9.408;2022-12-08T09:37:14;100095.53;;;5.23;64.57
64066;BME280;50318;54.760;9.408;2022-12-08T09:39:42;100126.88;;;5.44;64.39
64066;BME280;50318;54.760;9.408;2022-12-08T09:42:11;100104.69;;;5.30;64.52
64066;BME280;50318;54.760;9.408;2022-12-08T09:45:05;100150.00;;;5.65;64.30
64066;BME280;50318;54.760;9.408;2022-12-08T09:47:46;100107.56;;;5.39;64.51
64066;BME280;50318;54.760;9.408;2022-12-08T09:56:26;100150.44;;;5.64;64.11
64066;BME280;50318;54.760;9.408;2022-12-08T09:59:22;100145.66;;;5.68;63.99
64066;BME280;50318;54.760;9.408;2022-12-08T10:01:53;100108.16;;;5.46;64.19
64066;BME280;50318;54.760;9.408;2022-12-08T10:04:27;100082.41;;;5.35;64.14
64066;BME280;50318;54.760;9.408;2022-12-08T10:13:04;100134.91;;;5.93;63.99
64066;BME280;50318;54.760;9.408;2022-12-08T10:18:29;100092.44;;;5.67;63.70
64066;BME280;50318;54.760;9.408;2022-12-08T10:21:15;100110.66;;;5.82;63.79
64066;BME280;50318;54.760;9.408;2022-12-08T10:23:44;100073.59;;;5.60;63.97
64066;BME280;50318;54.760;9.408;2022-12-08T10:26:17;100105.13;;;5.86;64.12
64066;BME280;50318;54.760;9.408;2022-12-08T10:28:47;100100.88;;;5.85;63.99
64066;BME280;50318;54.760;9.408;2022-12-08T10:31:21;100109.78;;;6.02;63.55
64066;BME280;50318;54.760;9.408;2022-12-08T10:33:53;100098.78;;;5.93;63.05
64066;BME280;50318;54.760;9.408;2022-12-08T10:36:46;100095.19;;;5.96;63.54
64066;BME280;50318;54.760;9.408;2022-12-08T10:42:14;100128.13;;;6.27;63.41
64066;BME280;50318;54.760;9.408;2022-12-08T10:48:16;100077.75;;;5.93;62.91
64066;BME280;50318;54.760;9.408;2022-12-08T10:50:47;100141.53;;;6.34;62.83
64066;BME280;50318;54.760;9.408;2022-12-08T10:53:25;100145.34;;;6.36;63.02
64066;BME280;50318;54.760;9.408;2022-12-08T10:58:25;100078.72;;;5.99;63.01
64066;BME280;50318;54.760;9.408;2022-12-08T11:01:16;100134.09;;;6.34;63.10
64066;BME280;50318;54.760;9.408;2022-12-08T11:06:18;100108.63;;;6.15;62.45
64066;BME280;50318;54.760;9.408;2022-12-08T11:08:52;100085.72;;;6.00;62.34
64066;BME280;50318;54.760;9.408;2022-12-08T11:11:39;100102.28;;;6.19;62.70
64066;BME280;50318;54.760;9.408;2022-12-08T11:14:37;100088.00;;;6.02;62.55
64066;BME280;50318;54.760;9.408;2022-12-08T11:17:22;100144.38;;;6.43;62.20
64066;BME280;50318;54.760;9.408;2022-12-08T11:20:00;100125.38;;;6.27;62.35
64066;BME280;50318;54.760;9.408;2022-12-08T11:22:41;100112.06;;;6.03;62.52
64066;BME280;50318;54.760;9.408;2022-12-08T11:27:43;100113.22;;;5.90;62.58
64066;BME280;50318;54.760;9.408;2022-12-08T11:30:29;100080.03;;;5.66;62.68
64066;BME280;50318;54.760;9.408;2022-12-08T11:33:14;100153.44;;;6.11;62.88
64066;BME280;50318;54.760;9.408;2022-12-08T11:35:48;100122.63;;;6.01;63.42
64066;BME280;50318;54.760;9.408;2022-12-08T11:38:32;100118.81;;;6.11;63.72
64066;BME280;50318;54.760;9.408;2022-12-08T11:41:07;100079.50;;;6.00;63.83
64066;BME280;50318;54.760;9.408;2022-12-08T11:47:21;100085.41;;;6.24;63.26
64066;BME280;50318;54.760;9.408;2022-12-08T11:49:54;100093.06;;;6.41;63.17
64066;BME280;50318;54.760;9.408;2022-12-08T11:52:30;100099.78;;;6.62;63.24
64066;BME280;50318;54.760;9.408;2022-12-08T11:55:12;100084.63;;;6.61;62.31
64066;BME280;50318;54.760;9.408;2022-12-08T11:57:43;100108.63;;;6.92;62.16
64066;BME280;50318;54.760;9.408;2022-12-08T12:00:12;100138.13;;;7.19;62.06
64066;BME280;50318;54.760;9.408;2022-12-08T12:02:44;100069.13;;;6.84;61.66
64066;BME280;50318;54.760;9.408;2022-12-08T12:06:17;100122.19;;;7.17;61.22
64066;BME280;50318;54.760;9.408;2022-12-08T12:20:30;100149.56;;;7.61;59.74
64066;BME280;50318;54.760;9.408;2022-12-08T12:23:05;100110.75;;;7.44;59.78
64066;BME280;50318;54.760;9.408;2022-12-08T12:25:34;100101.50;;;7.42;59.19
64066;BME280;50318;54.760;9.408;2022-12-08T12:28:07;100085.56;;;7.40;58.63
64066;BME280;50318;54.760;9.408;2022-12-08T12:30:58;100124.94;;;7.74;58.51
64066;BME280;50318;54.760;9.408;2022-12-08T12:33:26;100113.97;;;7.64;58.15
64066;BME280;50318;54.760;9.408;2022-12-08T12:36:01;100138.53;;;7.86;57.20
64066;BME280;50318;54.760;9.408;2022-12-08T12:38:39;100107.13;;;7.60;57.49
64066;BME280;50318;54.760;9.408;2022-12-08T12:41:50;100146.88;;;7.83;58.32
64066;BME280;50318;54.760;9.408;2022-12-08T12:55:49;100138.41;;;8.12;56.48
64066;BME280;50318;54.760;9.408;2022-12-08T12:57:52;100098.22;;;7.90;56.57
64066;BME280;50318;54.760;9.408;2022-12-08T13:00:25;100089.97;;;7.81;56.23
64066;BME280;50318;54.760;9.408;2022-12-08T13:02:54;100085.28;;;7.82;56.73
64066;BME280;50318;54.760;9.408;2022-12-08T13:05:34;100134.28;;;8.07;56.13
64066;BME280;50318;54.760;9.408;2022-12-08T13:08:23;100139.66;;;8.20;55.50
64066;BME280;50318;54.760;9.408;2022-12-08T13:11:03;100097.91;;;7.88;55.38
64066;BME280;50318;54.760;9.408;2022-12-08T13:13:31;100149.38;;;8.21;56.00
64066;BME280;50318;54.760;9.408;2022-12-08T13:18:40;100095.09;;;7.79;54.71
64066;BME280;50318;54.760;9.408;2022-12-08T13:26:26;100113.19;;;7.64;56.05
64066;BME280;50318;54.760;9.408;2022-12-08T13:31:39;100130.09;;;7.72;56.97
64066;BME280;50318;54.760;9.408;2022-12-08T13:34:19;100122.59;;;7.63;57.15
64066;BME280;50318;54.760;9.408;2022-12-08T13:37:16;100110.31;;;7.46;57.07
64066;BME280;50318;54.760;9.408;2022-12-08T13:40:26;100166.53;;;7.78;57.56
64066;BME280;50318;54.760;9.408;2022-12-08T13:42:47;100167.91;;;7.60;57.20
64066;BME280;50318;54.760;9.408;2022-12-08T13:45:19;100102.03;;;7.15;57.46
64066;BME280;50318;54.760;9.408;2022-12-08T13:47:57;100114.47;;;7.16;57.71
64066;BME280;50318;54.760;9.408;2022-12-08T13:50:52;100171.56;;;7.45;57.89
64066;BME280;50318;54.760;9.408;2022-12-08T13:53:29;100131.59;;;7.16;58.15
64066;BME280;50318;54.760;9.408;2022-12-08T13:55:59;100137.81;;;7.17;57.86
64066;BME280;50318;54.760;9.408;2022-12-08T13:58:29;100117.44;;;6.96;58.29
64066;BME280;50318;54.760;9.408;2022-12-08T14:03:22;100133.34;;;6.85;58.48
64066;BME280;50318;54.760;9.408;2022-12-08T14:05:48;100144.81;;;6.80;58.59
64066;BME280;50318;54.760;9.408;2022-12-08T14:08:36;100147.44;;;6.70;58.70
64066;BME280;50318;54.760;9.408;2022-12-08T14:11:04;100137.91;;;6.37;59.03
64066;BME280;50318;54.760;9.408;2022-12-08T14:13:39;100178.59;;;6.44;58.71
64066;BME280;50318;54.760;9.408;2022-12-08T14:16:09;100164.69;;;6.13;58.98
64066;BME280;50318;54.760;9.408;2022-12-08T14:18:44;100171.63;;;6.01;59.40
64066;BME280;50318;54.760;9.408;2022-12-08T14:21:13;100142.19;;;5.67;59.41
64066;BME280;50318;54.760;9.408;2022-12-08T14:23:45;100139.66;;;5.60;60.18
64066;BME280;50318;54.760;9.408;2022-12-08T14:26:16;100155.53;;;5.62;60.28
64066;BME280;50318;54.760;9.408;2022-12-08T14:28:45;100144.34;;;5.43;60.10
64066;BME280;50318;54.760;9.408;2022-12-08T14:31:11;100180.03;;;5.62;60.39
64066;BME280;50318;54.760;9.408;2022-12-08T14:33:42;100179.03;;;5.55;61.05
64066;BME280;50318;54.760;9.408;2022-12-08T14:36:09;100122.56;;;5.14;60.96
64066;BME280;50318;54.760;9.408;2022-12-08T14:38:40;100126.97;;;5.08;60.89
64066;BME280;50318;54.760;9.408;2022-12-08T14:44:00;100128.25;;;4.87;61.01
64066;BME280;50318;54.760;9.408;2022-12-08T14:46:32;100180.75;;;5.17;61.62
64066;BME280;50318;54.760;9.408;2022-12-08T14:49:00;100186.03;;;5.08;61.65
64066;BME280;50318;54.760;9.408;2022-12-08T14:51:37;100164.09;;;4.82;61.53
64066;BME280;50318;54.760;9.408;2022-12-08T14:54:19;100186.50;;;4.86;62.15
64066;BME280;50318;54.760;9.408;2022-12-08T14:56:56;100144.75;;;4.44;62.29
64066;BME280;50318;54.760;9.408;2022-12-08T14:59:29;100142.94;;;4.38;62.05
64066;BME280;50318;54.760;9.408;2022-12-08T15:04:59;100138.97;;;4.06;62.47
64066;BME280;50318;54.760;9.408;2022-12-08T15:07:34;100137.44;;;4.05;62.36
64066;BME280;50318;54.760;9.408;2022-12-08T15:13:02;100203.38;;;4.42;62.77
64066;BME280;50318;54.760;9.408;2022-12-08T15:15:47;100141.09;;;3.95;62.88
64066;BME280;50318;54.760;9.408;2022-12-08T15:21:08;100208.63;;;4.32;62.41
64066;BME280;50318;54.760;9.408;2022-12-08T15:23:47;100197.88;;;4.25;62.58
64066;BME280;50318;54.760;9.408;2022-12-08T15:26:23;100168.72;;;3.90;62.42
64066;BME280;50318;54.760;9.408;2022-12-08T15:29:15;100152.22;;;3.61;62.17
64066;BME280;50318;54.760;9.408;2022-12-08T15:31:46;100173.09;;;3.64;61.70